sensor_id;sensor_type;location;lat;lon;timestamp;pressure;altitude;pressure_sealevel;temperature;humidity
59170;BME280;52474;52.236;5.114;2023-01-29T00:01:06;103038.19;;;2.89;100.00
59170;BME280;52474;52.236;5.114;2023-01-29T00:03:32;103024.19;;;2.90;100.00
59170;BME280;52474;52.236;5.114;2023-01-29T00:05:58;103021.59;;;2.90;100.00
59170;BME280;52474;52.236;5.114;2023-01-29T00:08:24;103024.19;;;2.90;100.00
59170;BME280;52474;52.236;5.114;2023-01-29T00:10:50;103020.75;;;2.88;100.00
59170;BME280;52474;52.236;5.114;2023-01-29T00:13:16;103012.03;;;2.87;100.00
59170;BME280;52474;52.236;5.114;2023-01-29T00:15:42;103015.56;;;2.86;100.00
59170;BME280;52474;52.236;5.114;2023-01-29T00:18:17;103015.50;;;2.88;100.00
59170;BME280;52474;52.236;5.114;2023-01-29T00:20:43;103021.59;;;2.90;100.00
59170;BME280;52474;52.236;5.114;2023-01-29T00:23:08;102998.25;;;2.79;100.00
59170;BME280;52474;52.236;5.114;2023-01-29T00:25:34;103021.59;;;2.90;100.00
59170;BME280;52474;52.236;5.114;2023-01-29T00:28:00;103006.03;;;2.80;100.00
59170;BME280;52474;52.236;5.114;2023-01-29T00:30:26;103018.09;;;2.91;100.00
59170;BME280;52474;52.236;5.114;2023-01-29T00:32:51;103013.72;;;2.90;100.00
59170;BME280;52474;52.236;5.114;2023-01-29T00:35:19;102986.03;;;2.78;100.00
59170;BME280;52474;52.236;5.114;2023-01-29T00:37:45;102991.22;;;2.81;100.00
59170;BME280;52474;52.236;5.114;2023-01-29T00:40:11;102976.44;;;2.78;100.00
59170;BME280;52474;52.236;5.114;2023-01-29T00:42:37;102993.69;;;2.89;100.00
59170;BME280;52474;52.236;5.114;2023-01-29T00:45:21;103004.19;;;2.87;100.00
59170;BME280;52474;52.236;5.114;2023-01-29T00:47:46;102995.47;;;2.87;100.00
59170;BME280;52474;52.236;5.114;2023-01-29T00:50:12;102997.22;;;2.86;100.00
59170;BME280;52474;52.236;5.114;2023-01-29T00:52:38;102996.38;;;2.86;100.00
59170;BME280;52474;52.236;5.114;2023-01-29T00:55:06;102979.94;;;2.77;100.00
59170;BME280;52474;52.236;5.114;2023-01-29T00:57:33;102978.09;;;2.83;100.00
59170;BME280;52474;52.236;5.114;2023-01-29T00:59:59;102980.69;;;2.84;100.00
59170;BME280;52474;52.236;5.114;2023-01-29T01:02:26;102977.22;;;2.84;100.00
59170;BME280;52474;52.236;5.114;2023-01-29T01:05:15;102978.94;;;2.85;100.00
59170;BME280;52474;52.236;5.114;2023-01-29T01:07:49;102982.41;;;2.85;100.00
59170;BME280;52474;52.236;5.114;2023-01-29T01:10:18;102995.47;;;2.87;100.00
59170;BME280;52474;52.236;5.114;2023-01-29T01:13:06;102975.66;;;2.73;100.00
59170;BME280;52474;52.236;5.114;2023-01-29T01:15:37;102991.16;;;2.86;100.00
59170;BME280;52474;52.236;5.114;2023-01-29T01:18:04;102981.69;;;2.77;100.00
59170;BME280;52474;52.236;5.114;2023-01-29T01:20:33;102985.22;;;2.74;100.00
59170;BME280;52474;52.236;5.114;2023-01-29T01:22:59;102998.03;;;2.90;100.00
59170;BME280;52474;52.236;5.114;2023-01-29T01:25:25;103005.00;;;2.91;100.00
59170;BME280;52474;52.236;5.114;2023-01-29T01:27:55;103002.38;;;2.91;100.00
59170;BME280;52474;52.236;5.114;2023-01-29T01:30:23;102997.19;;;2.88;100.00
59170;BME280;52474;52.236;5.114;2023-01-29T01:32:49;103003.19;;;2.93;100.00
59170;BME280;52474;52.236;5.114;2023-01-29T01:35:15;102996.19;;;2.95;100.00
59170;BME280;52474;52.236;5.114;2023-01-29T01:37:41;103005.72;;;2.99;100.00
59170;BME280;52474;52.236;5.114;2023-01-29T01:40:12;102999.63;;;2.98;100.00
59170;BME280;52474;52.236;5.114;2023-01-29T01:42:43;102990.94;;;2.96;100.00
59170;BME280;52474;52.236;5.114;2023-01-29T01:45:30;102974.53;;;2.88;100.00
59170;BME280;52474;52.236;5.114;2023-01-29T01:48:02;102994.47;;;2.95;100.00
59170;BME280;52474;52.236;5.114;2023-01-29T01:50:36;102997.97;;;2.93;100.00
59170;BME280;52474;52.236;5.114;2023-01-29T01:53:14;102999.63;;;2.97;100.00
59170;BME280;52474;52.236;5.114;2023-01-29T01:55:46;102977.16;;;2.87;100.00
59170;BME280;52474;52.236;5.114;2023-01-29T01:58:18;102989.22;;;2.95;100.00
59170;BME280;52474;52.236;5.114;2023-01-29T02:00:46;102996.09;;;2.99;100.00
59170;BME280;52474;52.236;5.114;2023-01-29T02:03:12;102991.78;;;2.98;100.00
59170;BME280;52474;52.236;5.114;2023-01-29T02:05:58;103002.25;;;2.97;100.00
59170;BME280;52474;52.236;5.114;2023-01-29T02:08:51;102997.97;;;2.93;100.00
59170;BME280;52474;52.236;5.114;2023-01-29T02:11:38;102974.59;;;2.84;100.00
59170;BME280;52474;52.236;5.114;2023-01-29T02:14:04;102990.22;;;2.88;100.00
59170;BME280;52474;52.236;5.114;2023-01-29T02:16:33;102995.41;;;2.90;100.00
59170;BME280;52474;52.236;5.114;2023-01-29T02:19:04;102985.00;;;2.88;100.00
59170;BME280;52474;52.236;5.114;2023-01-29T02:24:10;102995.47;;;2.88;100.00
59170;BME280;52474;52.236;5.114;2023-01-29T02:27:05;103003.31;;;2.88;100.00
59170;BME280;52474;52.236;5.114;2023-01-29T02:35:05;103011.19;;;2.87;100.00
59170;BME280;52474;52.236;5.114;2023-01-29T02:37:56;103012.00;;;2.89;100.00
59170;BME280;52474;52.236;5.114;2023-01-29T02:40:37;103009.41;;;2.87;100.00
59170;BME280;52474;52.236;5.114;2023-01-29T02:46:17;102999.00;;;2.86;100.00
59170;BME280;52474;52.236;5.114;2023-01-29T02:48:55;102974.84;;;2.71;100.00
59170;BME280;52474;52.236;5.114;2023-01-29T02:51:43;102995.56;;;2.82;100.00
59170;BME280;52474;52.236;5.114;2023-01-29T02:54:22;103003.25;;;2.90;100.00
59170;BME280;52474;52.236;5.114;2023-01-29T02:56:58;102961.00;;;2.65;100.00
59170;BME280;52474;52.236;5.114;2023-01-29T02:59:34;102992.06;;;2.83;100.00
59170;BME280;52474;52.236;5.114;2023-01-29T03:02:06;102992.06;;;2.83;100.00
59170;BME280;52474;52.236;5.114;2023-01-29T03:04:38;102992.00;;;2.85;100.00
59170;BME280;52474;52.236;5.114;2023-01-29T03:07:09;102986.00;;;2.81;100.00
59170;BME280;52474;52.236;5.114;2023-01-29T03:09:58;102976.41;;;2.80;100.00
59170;BME280;52474;52.236;5.114;2023-01-29T03:12:27;102967.00;;;2.68;100.00
59170;BME280;52474;52.236;5.114;2023-01-29T03:15:10;102980.00;;;2.73;100.00
59170;BME280;52474;52.236;5.114;2023-01-29T03:18:05;102967.94;;;2.66;100.00
59170;BME280;52474;52.236;5.114;2023-01-29T03:20:37;102979.16;;;2.72;100.00
59170;BME280;52474;52.236;5.114;2023-01-29T03:23:16;102979.22;;;2.69;100.00
59170;BME280;52474;52.236;5.114;2023-01-29T03:25:52;102961.13;;;2.58;100.00
59170;BME280;52474;52.236;5.114;2023-01-29T03:28:39;102969.69;;;2.67;100.00
59170;BME280;52474;52.236;5.114;2023-01-29T03:31:25;102960.91;;;2.68;100.00
59170;BME280;52474;52.236;5.114;2023-01-29T03:34:16;102952.22;;;2.66;100.00
59170;BME280;52474;52.236;5.114;2023-01-29T03:37:01;102936.66;;;2.61;100.00
59170;BME280;52474;52.236;5.114;2023-01-29T03:39:28;102929.75;;;2.57;100.00
59170;BME280;52474;52.236;5.114;2023-01-29T03:42:11;102947.91;;;2.66;100.00
59170;BME280;52474;52.236;5.114;2023-01-29T03:53:43;102927.81;;;2.67;100.00
59170;BME280;52474;52.236;5.114;2023-01-29T03:56:32;102931.31;;;2.66;100.00
59170;BME280;52474;52.236;5.114;2023-01-29T03:59:20;102926.03;;;2.69;100.00
59170;BME280;52474;52.236;5.114;2023-01-29T04:02:10;102920.06;;;2.62;100.00
59170;BME280;52474;52.236;5.114;2023-01-29T04:04:40;102921.66;;;2.69;100.00
59170;BME280;52474;52.236;5.114;2023-01-29T04:07:19;102930.38;;;2.70;100.00
59170;BME280;52474;52.236;5.114;2023-01-29T04:09:57;102923.44;;;2.69;100.00
59170;BME280;52474;52.236;5.114;2023-01-29T04:12:28;102927.75;;;2.70;100.00
59170;BME280;52474;52.236;5.114;2023-01-29T04:14:58;102916.38;;;2.72;100.00
59170;BME280;52474;52.236;5.114;2023-01-29T04:17:38;102922.44;;;2.73;100.00
59170;BME280;52474;52.236;5.114;2023-01-29T04:20:22;102925.06;;;2.74;100.00
59170;BME280;52474;52.236;5.114;2023-01-29T04:22:50;102901.72;;;2.64;100.00
59170;BME280;52474;52.236;5.114;2023-01-29T04:25:22;102927.69;;;2.73;100.00
59170;BME280;52474;52.236;5.114;2023-01-29T04:28:27;102906.03;;;2.66;100.00
59170;BME280;52474;52.236;5.114;2023-01-29T04:30:59;102912.06;;;2.70;100.00
59170;BME280;52474;52.236;5.114;2023-01-29T04:36:44;102905.06;;;2.70;100.00
59170;BME280;52474;52.236;5.114;2023-01-29T04:39:17;102897.25;;;2.69;100.00
59170;BME280;52474;52.236;5.114;2023-01-29T04:42:00;102879.97;;;2.60;100.00
59170;BME280;52474;52.236;5.114;2023-01-29T04:47:15;102891.97;;;2.70;100.00
59170;BME280;52474;52.236;5.114;2023-01-29T04:55:20;102870.22;;;2.68;100.00
59170;BME280;52474;52.236;5.114;2023-01-29T05:00:31;102871.13;;;2.67;100.00
59170;BME280;52474;52.236;5.114;2023-01-29T05:02:59;102867.66;;;2.67;100.00
59170;BME280;52474;52.236;5.114;2023-01-29T05:05:26;102863.34;;;2.64;100.00
59170;BME280;52474;52.236;5.114;2023-01-29T05:07:53;102868.50;;;2.67;100.00
59170;BME280;52474;52.236;5.114;2023-01-29T05:10:21;102871.97;;;2.68;100.00
59170;BME280;52474;52.236;5.114;2023-01-29T05:12:53;102872.94;;;2.64;100.00
59170;BME280;52474;52.236;5.114;2023-01-29T05:15:32;102874.59;;;2.68;100.00
59170;BME280;52474;52.236;5.114;2023-01-29T05:17:59;102884.19;;;2.67;100.00
59170;BME280;52474;52.236;5.114;2023-01-29T05:20:31;102868.66;;;2.60;100.00
59170;BME280;52474;52.236;5.114;2023-01-29T05:22:58;102875.50;;;2.65;100.00
59170;BME280;52474;52.236;5.114;2023-01-29T05:25:29;102870.41;;;2.59;100.00
59170;BME280;52474;52.236;5.114;2023-01-29T05:27:55;102871.09;;;2.69;100.00
59170;BME280;52474;52.236;5.114;2023-01-29T05:30:36;102871.97;;;2.68;100.00
59170;BME280;52474;52.236;5.114;2023-01-29T05:33:03;102864.13;;;2.68;100.00
59170;BME280;52474;52.236;5.114;2023-01-29T05:35:30;102866.75;;;2.68;100.00
59170;BME280;52474;52.236;5.114;2023-01-29T05:37:56;102865.81;;;2.70;100.00
59170;BME280;52474;52.236;5.114;2023-01-29T05:40:23;102867.56;;;2.70;100.00
59170;BME280;52474;52.236;5.114;2023-01-29T05:42:49;102864.22;;;2.63;100.00
59170;BME280;52474;52.236;5.114;2023-01-29T05:45:16;102854.66;;;2.62;100.00
59170;BME280;52474;52.236;5.114;2023-01-29T05:47:43;102855.56;;;2.61;100.00
59170;BME280;52474;52.236;5.114;2023-01-29T05:50:09;102867.56;;;2.71;100.00
59170;BME280;52474;52.236;5.114;2023-01-29T05:52:35;102864.09;;;2.71;100.00
59170;BME280;52474;52.236;5.114;2023-01-29T05:55:01;102854.63;;;2.64;100.00
59170;BME280;52474;52.236;5.114;2023-01-29T05:57:26;102842.47;;;2.61;100.00
59170;BME280;52474;52.236;5.114;2023-01-29T05:59:52;102855.34;;;2.70;100.00
59170;BME280;52474;52.236;5.114;2023-01-29T06:02:18;102846.66;;;2.70;100.00
59170;BME280;52474;52.236;5.114;2023-01-29T06:04:43;102836.34;;;2.62;100.00
59170;BME280;52474;52.236;5.114;2023-01-29T06:07:09;102840.50;;;2.72;100.00
59170;BME280;52474;52.236;5.114;2023-01-29T06:09:35;102829.25;;;2.67;100.00
59170;BME280;52474;52.236;5.114;2023-01-29T06:12:00;102818.06;;;2.61;100.00
59170;BME280;52474;52.236;5.114;2023-01-29T06:14:26;102834.47;;;2.69;100.00
59170;BME280;52474;52.236;5.114;2023-01-29T06:16:52;102844.03;;;2.70;100.00
59170;BME280;52474;52.236;5.114;2023-01-29T06:19:17;102834.41;;;2.72;100.00
59170;BME280;52474;52.236;5.114;2023-01-29T06:21:45;102829.19;;;2.70;100.00
59170;BME280;52474;52.236;5.114;2023-01-29T06:24:10;102828.31;;;2.71;100.00
59170;BME280;52474;52.236;5.114;2023-01-29T06:26:36;102817.88;;;2.70;100.00
59170;BME280;52474;52.236;5.114;2023-01-29T06:29:02;102819.66;;;2.68;100.00
59170;BME280;52474;52.236;5.114;2023-01-29T06:31:27;102822.28;;;2.68;100.00
59170;BME280;52474;52.236;5.114;2023-01-29T06:33:53;102814.41;;;2.68;100.00
59170;BME280;52474;52.236;5.114;2023-01-29T06:36:19;102817.09;;;2.66;100.00
59170;BME280;52474;52.236;5.114;2023-01-29T06:38:44;102820.56;;;2.67;100.00
59170;BME280;52474;52.236;5.114;2023-01-29T06:41:14;102812.81;;;2.62;100.00
59170;BME280;52474;52.236;5.114;2023-01-29T06:43:43;102824.09;;;2.64;100.00
59170;BME280;52474;52.236;5.114;2023-01-29T06:46:09;102832.81;;;2.65;100.00
59170;BME280;52474;52.236;5.114;2023-01-29T06:48:35;102830.16;;;2.66;100.00
59170;BME280;52474;52.236;5.114;2023-01-29T06:51:02;102829.28;;;2.66;100.00
59170;BME280;52474;52.236;5.114;2023-01-29T06:53:29;102823.25;;;2.64;100.00
59170;BME280;52474;52.236;5.114;2023-01-29T06:55:55;102818.03;;;2.62;100.00
59170;BME280;52474;52.236;5.114;2023-01-29T06:58:21;102821.50;;;2.63;100.00
59170;BME280;52474;52.236;5.114;2023-01-29T07:00:47;102812.81;;;2.62;100.00
59170;BME280;52474;52.236;5.114;2023-01-29T07:03:13;102805.84;;;2.61;100.00
59170;BME280;52474;52.236;5.114;2023-01-29T07:05:38;102794.72;;;2.51;100.00
59170;BME280;52474;52.236;5.114;2023-01-29T07:08:04;102804.94;;;2.62;100.00
59170;BME280;52474;52.236;5.114;2023-01-29T07:10:30;102804.94;;;2.64;100.00
59170;BME280;52474;52.236;5.114;2023-01-29T07:12:59;102765.38;;;2.35;100.00
59170;BME280;52474;52.236;5.114;2023-01-29T07:15:26;102808.50;;;2.60;100.00
59170;BME280;52474;52.236;5.114;2023-01-29T07:17:59;102808.41;;;2.64;100.00
59170;BME280;52474;52.236;5.114;2023-01-29T07:20:26;102821.41;;;2.67;100.00
59170;BME280;52474;52.236;5.114;2023-01-29T07:22:52;102828.34;;;2.68;100.00
59170;BME280;52474;52.236;5.114;2023-01-29T07:25:19;102802.41;;;2.59;100.00
59170;BME280;52474;52.236;5.114;2023-01-29T07:27:45;102818.72;;;2.70;100.00
59170;BME280;52474;52.236;5.114;2023-01-29T07:30:11;102807.56;;;2.62;100.00
59170;BME280;52474;52.236;5.114;2023-01-29T07:32:37;102820.50;;;2.70;100.00
59170;BME280;52474;52.236;5.114;2023-01-29T07:35:03;102818.78;;;2.69;100.00
59170;BME280;52474;52.236;5.114;2023-01-29T07:37:29;102818.69;;;2.73;100.00
59170;BME280;52474;52.236;5.114;2023-01-29T07:39:54;102816.06;;;2.73;100.00
59170;BME280;52474;52.236;5.114;2023-01-29T07:42:20;102802.94;;;2.75;100.00
59170;BME280;52474;52.236;5.114;2023-01-29T07:44:46;102807.28;;;2.76;100.00
59170;BME280;52474;52.236;5.114;2023-01-29T07:47:11;102804.69;;;2.76;100.00
59170;BME280;52474;52.236;5.114;2023-01-29T07:49:37;102795.09;;;2.75;100.00
59170;BME280;52474;52.236;5.114;2023-01-29T07:52:03;102792.41;;;2.78;100.00
59170;BME280;52474;52.236;5.114;2023-01-29T07:54:29;102768.19;;;2.68;100.00
59170;BME280;52474;52.236;5.114;2023-01-29T07:56:55;102775.00;;;2.75;100.00
59170;BME280;52474;52.236;5.114;2023-01-29T07:59:21;102776.75;;;2.76;100.00
59170;BME280;52474;52.236;5.114;2023-01-29T08:01:46;102772.38;;;2.77;100.00
59170;BME280;52474;52.236;5.114;2023-01-29T08:04:12;102755.09;;;2.70;100.00
59170;BME280;52474;52.236;5.114;2023-01-29T08:06:38;102771.47;;;2.78;100.00
59170;BME280;52474;52.236;5.114;2023-01-29T08:09:04;102770.59;;;2.79;100.00
59170;BME280;52474;52.236;5.114;2023-01-29T08:11:29;102768.00;;;2.77;100.00
59170;BME280;52474;52.236;5.114;2023-01-29T08:13:55;102775.66;;;2.85;100.00
59170;BME280;52474;52.236;5.114;2023-01-29T08:16:22;102778.25;;;2.87;100.00
59170;BME280;52474;52.236;5.114;2023-01-29T08:18:47;102780.81;;;2.90;100.00
59170;BME280;52474;52.236;5.114;2023-01-29T08:21:13;102762.75;;;2.79;100.00
59170;BME280;52474;52.236;5.114;2023-01-29T08:23:39;102773.81;;;2.90;100.00
59170;BME280;52474;52.236;5.114;2023-01-29T08:26:08;102760.91;;;2.83;100.00
59170;BME280;52474;52.236;5.114;2023-01-29T08:28:35;102756.56;;;2.82;100.00
59170;BME280;52474;52.236;5.114;2023-01-29T08:31:00;102775.47;;;2.94;100.00
59170;BME280;52474;52.236;5.114;2023-01-29T08:33:26;102773.72;;;2.95;100.00
59170;BME280;52474;52.236;5.114;2023-01-29T08:35:53;102767.59;;;2.96;100.00
59170;BME280;52474;52.236;5.114;2023-01-29T08:38:19;102764.91;;;2.99;100.00
59170;BME280;52474;52.236;5.114;2023-01-29T08:40:45;102750.91;;;3.00;100.00
59170;BME280;52474;52.236;5.114;2023-01-29T08:43:12;102754.25;;;3.07;100.00
59170;BME280;52474;52.236;5.114;2023-01-29T08:45:42;102758.63;;;3.08;100.00
59170;BME280;52474;52.236;5.114;2023-01-29T08:48:09;102754.19;;;3.10;100.00
59170;BME280;52474;52.236;5.114;2023-01-29T08:50:35;102744.59;;;3.10;100.00
59170;BME280;52474;52.236;5.114;2023-01-29T08:53:06;102738.56;;;3.07;100.00
59170;BME280;52474;52.236;5.114;2023-01-29T08:55:37;102743.66;;;3.13;100.00
59170;BME280;52474;52.236;5.114;2023-01-29T08:58:09;102748.84;;;3.14;100.00
59170;BME280;52474;52.236;5.114;2023-01-29T09:00:36;102747.84;;;3.20;100.00
59170;BME280;52474;52.236;5.114;2023-01-29T09:03:03;102741.72;;;3.21;100.00
59170;BME280;52474;52.236;5.114;2023-01-29T09:05:36;102732.91;;;3.23;100.00
59170;BME280;52474;52.236;5.114;2023-01-29T09:08:03;102732.81;;;3.28;100.00
59170;BME280;52474;52.236;5.114;2023-01-29T09:10:29;102708.91;;;3.06;100.00
59170;BME280;52474;52.236;5.114;2023-01-29T09:12:58;102738.81;;;3.32;100.00
59170;BME280;52474;52.236;5.114;2023-01-29T09:15:24;102743.19;;;3.31;100.00
59170;BME280;52474;52.236;5.114;2023-01-29T09:17:49;102735.44;;;3.27;100.00
59170;BME280;52474;52.236;5.114;2023-01-29T09:20:16;102739.72;;;3.31;100.00
59170;BME280;52474;52.236;5.114;2023-01-29T09:22:42;102739.00;;;3.24;100.00
59170;BME280;52474;52.236;5.114;2023-01-29T09:25:09;102738.75;;;3.35;100.00
59170;BME280;52474;52.236;5.114;2023-01-29T09:27:35;102737.13;;;3.29;100.00
59170;BME280;52474;52.236;5.114;2023-01-29T09:30:03;102747.28;;;3.43;100.00
59170;BME280;52474;52.236;5.114;2023-01-29T09:32:28;102737.78;;;3.39;100.00
59170;BME280;52474;52.236;5.114;2023-01-29T09:34:57;102743.75;;;3.44;100.00
59170;BME280;52474;52.236;5.114;2023-01-29T09:37:23;102741.13;;;3.44;100.00
59170;BME280;52474;52.236;5.114;2023-01-29T09:39:49;102736.75;;;3.44;100.00
59170;BME280;52474;52.236;5.114;2023-01-29T09:42:17;102726.25;;;3.46;100.00
59170;BME280;52474;52.236;5.114;2023-01-29T09:45:15;102738.25;;;3.55;100.00
59170;BME280;52474;52.236;5.114;2023-01-29T09:47:46;102735.00;;;3.45;100.00
59170;BME280;52474;52.236;5.114;2023-01-29T09:50:21;102735.88;;;3.44;100.00
59170;BME280;52474;52.236;5.114;2023-01-29T09:53:00;102728.00;;;3.46;100.00
59170;BME280;52474;52.236;5.114;2023-01-29T09:55:31;102729.66;;;3.50;100.00
59170;BME280;52474;52.236;5.114;2023-01-29T09:58:39;102725.91;;;3.60;100.00
59170;BME280;52474;52.236;5.114;2023-01-29T10:01:25;102733.56;;;3.68;100.00
59170;BME280;52474;52.236;5.114;2023-01-29T10:09:32;102730.19;;;3.62;100.00
59170;BME280;52474;52.236;5.114;2023-01-29T10:23:53;102702.53;;;3.52;100.00
59170;BME280;52474;52.236;5.114;2023-01-29T10:26:23;102701.78;;;3.47;100.00
59170;BME280;52474;52.236;5.114;2023-01-29T10:28:57;102696.53;;;3.47;100.00
59170;BME280;52474;52.236;5.114;2023-01-29T10:31:29;102691.97;;;3.55;100.00
59170;BME280;52474;52.236;5.114;2023-01-29T10:34:11;102684.94;;;3.56;100.00
59170;BME280;52474;52.236;5.114;2023-01-29T10:36:44;102678.06;;;3.52;100.00
59170;BME280;52474;52.236;5.114;2023-01-29T10:39:18;102698.69;;;3.64;100.00
59170;BME280;52474;52.236;5.114;2023-01-29T10:41:53;102693.44;;;3.65;100.00
59170;BME280;52474;52.236;5.114;2023-01-29T10:47:33;102682.13;;;3.63;100.00
59170;BME280;52474;52.236;5.114;2023-01-29T10:53:24;102682.94;;;3.65;100.00
59170;BME280;52474;52.236;5.114;2023-01-29T10:56:04;102682.97;;;3.64;100.00
59170;BME280;52474;52.236;5.114;2023-01-29T10:58:58;102670.75;;;3.64;100.00
59170;BME280;52474;52.236;5.114;2023-01-29T11:01:26;102663.78;;;3.63;100.00
59170;BME280;52474;52.236;5.114;2023-01-29T11:04:02;102658.31;;;3.71;100.00
59170;BME280;52474;52.236;5.114;2023-01-29T11:06:32;102656.75;;;3.65;100.00
59170;BME280;52474;52.236;5.114;2023-01-29T11:09:29;102654.03;;;3.69;100.00
59170;BME280;52474;52.236;5.114;2023-01-29T11:12:05;102650.59;;;3.66;100.00
59170;BME280;52474;52.236;5.114;2023-01-29T11:17:16;102654.09;;;3.67;100.00
59170;BME280;52474;52.236;5.114;2023-01-29T11:19:45;102633.25;;;3.62;100.00
59170;BME280;52474;52.236;5.114;2023-01-29T11:24:37;102650.56;;;3.68;100.00
59170;BME280;52474;52.236;5.114;2023-01-29T11:27:34;102634.13;;;3.61;100.00
59170;BME280;52474;52.236;5.114;2023-01-29T11:29:58;102644.63;;;3.61;100.00
59170;BME280;52474;52.236;5.114;2023-01-29T11:32:27;102628.38;;;3.49;100.00
59170;BME280;52474;52.236;5.114;2023-01-29T11:37:40;102616.13;;;3.49;100.00
59170;BME280;52474;52.236;5.114;2023-01-29T11:42:45;102618.75;;;3.49;100.00
59170;BME280;52474;52.236;5.114;2023-01-29T11:45:24;102621.13;;;3.58;100.00
59170;BME280;52474;52.236;5.114;2023-01-29T11:47:55;102615.91;;;3.57;100.00
59170;BME280;52474;52.236;5.114;2023-01-29T11:50:27;102609.97;;;3.52;100.00
59170;BME280;52474;52.236;5.114;2023-01-29T11:53:00;102609.91;;;3.53;100.00
59170;BME280;52474;52.236;5.114;2023-01-29T11:55:29;102596.09;;;3.48;100.00
59170;BME280;52474;52.236;5.114;2023-01-29T11:58:16;102596.84;;;3.52;100.00
59170;BME280;52474;52.236;5.114;2023-01-29T12:00:46;102591.56;;;3.55;100.00
59170;BME280;52474;52.236;5.114;2023-01-29T12:03:39;102587.06;;;3.58;100.00
59170;BME280;52474;52.236;5.114;2023-01-29T12:06:13;102576.91;;;3.48;100.00
59170;BME280;52474;52.236;5.114;2023-01-29T12:08:42;102559.59;;;3.42;100.00
59170;BME280;52474;52.236;5.114;2023-01-29T12:11:23;102582.63;;;3.62;100.00
59170;BME280;52474;52.236;5.114;2023-01-29T12:13:56;102578.00;;;3.70;100.00
59170;BME280;52474;52.236;5.114;2023-01-29T12:16:27;102568.41;;;3.69;100.00
59170;BME280;52474;52.236;5.114;2023-01-29T12:21:44;102567.50;;;3.72;100.00
59170;BME280;52474;52.236;5.114;2023-01-29T12:29:51;102544.84;;;3.69;100.00
59170;BME280;52474;52.236;5.114;2023-01-29T12:35:20;102513.59;;;3.63;100.00
59170;BME280;52474;52.236;5.114;2023-01-29T12:37:55;102529.09;;;3.71;100.00
59170;BME280;52474;52.236;5.114;2023-01-29T12:40:39;102515.94;;;3.72;100.00
59170;BME280;52474;52.236;5.114;2023-01-29T12:43:20;102514.75;;;3.82;100.00
59170;BME280;52474;52.236;5.114;2023-01-29T12:45:52;102505.75;;;3.91;100.00
59170;BME280;52474;52.236;5.114;2023-01-29T12:48:30;102492.25;;;4.03;100.00
59170;BME280;52474;52.236;5.114;2023-01-29T12:51:09;102487.84;;;4.32;100.00
59170;BME280;52474;52.236;5.114;2023-01-29T12:53:48;102475.00;;;4.24;100.00
59170;BME280;52474;52.236;5.114;2023-01-29T12:56:25;102442.72;;;4.22;100.00
59170;BME280;52474;52.236;5.114;2023-01-29T12:58:53;102451.81;;;4.37;100.00
59170;BME280;52474;52.236;5.114;2023-01-29T13:01:33;102443.22;;;4.34;100.00
59170;BME280;52474;52.236;5.114;2023-01-29T13:04:05;102438.56;;;4.42;100.00
59170;BME280;52474;52.236;5.114;2023-01-29T13:06:50;102436.16;;;4.36;100.00
59170;BME280;52474;52.236;5.114;2023-01-29T13:09:22;102423.47;;;4.48;100.00
59170;BME280;52474;52.236;5.114;2023-01-29T13:14:17;102414.09;;;4.41;100.00
59170;BME280;52474;52.236;5.114;2023-01-29T13:16:48;102419.09;;;4.49;100.00
59170;BME280;52474;52.236;5.114;2023-01-29T13:19:19;102410.63;;;4.41;100.00
59170;BME280;52474;52.236;5.114;2023-01-29T13:21:46;102379.16;;;4.41;100.00
59170;BME280;52474;52.236;5.114;2023-01-29T13:24:21;102399.44;;;4.61;100.00
59170;BME280;52474;52.236;5.114;2023-01-29T13:26:48;102396.28;;;4.51;100.00
59170;BME280;52474;52.236;5.114;2023-01-29T13:29:28;102381.53;;;4.47;100.00
59170;BME280;52474;52.236;5.114;2023-01-29T13:31:55;102376.63;;;4.38;100.00
59170;BME280;52474;52.236;5.114;2023-01-29T13:34:30;102373.03;;;4.40;100.00
59170;BME280;52474;52.236;5.114;2023-01-29T13:37:00;102374.81;;;4.40;100.00
59170;BME280;52474;52.236;5.114;2023-01-29T13:39:32;102349.97;;;4.25;100.00
59170;BME280;52474;52.236;5.114;2023-01-29T13:42:00;102368.81;;;4.36;100.00
59170;BME280;52474;52.236;5.114;2023-01-29T13:44:36;102373.03;;;4.40;100.00
59170;BME280;52474;52.236;5.114;2023-01-29T13:47:09;102366.06;;;4.39;100.00
59170;BME280;52474;52.236;5.114;2023-01-29T13:49:39;102363.63;;;4.35;100.00
59170;BME280;52474;52.236;5.114;2023-01-29T13:55:24;102358.91;;;4.44;100.00
59170;BME280;52474;52.236;5.114;2023-01-29T13:58:02;102357.28;;;4.40;100.00
59170;BME280;52474;52.236;5.114;2023-01-29T14:08:05;102358.75;;;4.49;100.00
59170;BME280;52474;52.236;5.114;2023-01-29T14:10:32;102356.00;;;4.52;100.00
59170;BME280;52474;52.236;5.114;2023-01-29T14:18:32;102335.41;;;4.65;100.00
59170;BME280;52474;52.236;5.114;2023-01-29T14:26:22;102333.44;;;4.48;100.00
59170;BME280;52474;52.236;5.114;2023-01-29T14:28:56;102330.97;;;4.43;100.00
59170;BME280;52474;52.236;5.114;2023-01-29T14:31:30;102321.44;;;4.41;100.00
59170;BME280;52474;52.236;5.114;2023-01-29T14:34:02;102337.09;;;4.42;100.00
59170;BME280;52474;52.236;5.114;2023-01-29T14:36:38;102317.94;;;4.40;100.00
59170;BME280;52474;52.236;5.114;2023-01-29T14:39:05;102313.28;;;4.48;100.00
59170;BME280;52474;52.236;5.114;2023-01-29T14:41:33;102308.06;;;4.48;100.00
59170;BME280;52474;52.236;5.114;2023-01-29T14:47:03;102303.19;;;4.61;100.00
59170;BME280;52474;52.236;5.114;2023-01-29T14:52:15;102305.03;;;4.59;100.00
59170;BME280;52474;52.236;5.114;2023-01-29T14:54:42;102289.44;;;4.55;100.00
59170;BME280;52474;52.236;5.114;2023-01-29T14:57:11;102293.03;;;4.52;100.00
59170;BME280;52474;52.236;5.114;2023-01-29T14:59:55;102301.03;;;4.49;100.00
59170;BME280;52474;52.236;5.114;2023-01-29T15:02:37;102301.94;;;4.48;100.00